Time;durP1;ratioP1;P1;durP2;ratioP2;P2;SDS_P1;SDS_P2;PMS_P1;PMS_P2;Temp;Humidity;BMP_temperature;BMP_pressure;BME280_temperature;BME280_humidity;BME280_pressure;Samples;Min_cycle;Max_cycle;Signal;HPM_P1;HPM_P2
2022/09/28 00:02:06;;;;;;;0.50;0.20;;;;;;;;;;5092983;28;20069;-42
2022/09/28 00:04:32;;;;;;;0.20;0.10;;;;;;;;;;5092685;28;20047;-42
2022/09/28 00:06:58;;;;;;;0.10;0.10;;;;;;;;;;5092686;28;20099;-42
2022/09/28 00:09:23;;;;;;;0.20;0.20;;;;;;;;;;5092775;28;20035;-42
2022/09/28 00:11:48;;;;;;;0.20;0.20;;;;;;;;;;5092970;28;20456;-43
2022/09/28 00:14:14;;;;;;;0.10;0.10;;;;;;;;;;5092978;28;20020;-42
2022/09/28 00:16:40;;;;;;;0.10;0.10;;;;;;;;;;5092529;28;20471;-42
2022/09/28 00:19:07;;;;;;;0.10;0.10;;;;;;;;;;5092891;28;20143;-42
2022/09/28 00:21:34;;;;;;;0.15;0.10;;;;;;;;;;5091809;28;20016;-42
2022/09/28 00:24:13;;;;;;;0.20;0.10;;;;;;;;;;5092748;28;20055;-42
2022/09/28 00:26:39;;;;;;;0.35;0.20;;;;;;;;;;5092609;28;20111;-42
2022/09/28 00:29:05;;;;;;;0.20;0.20;;;;;;;;;;5092425;28;20031;-43
2022/09/28 00:31:32;;;;;;;0.28;0.20;;;;;;;;;;5092418;28;20028;-42
2022/09/28 00:33:59;;;;;;;0.10;0.10;;;;;;;;;;5074144;28;20115;-42
2022/09/28 00:36:26;;;;;;;0.15;0.13;;;;;;;;;;5092536;28;20028;-42
2022/09/28 00:38:52;;;;;;;0.57;0.10;;;;;;;;;;5092138;28;20020;-42
2022/09/28 00:41:18;;;;;;;0.10;0.10;;;;;;;;;;5092326;28;20028;-42
2022/09/28 00:43:43;;;;;;;2.42;0.15;;;;;;;;;;5091936;28;20066;-42
2022/09/28 00:46:14;;;;;;;0.73;0.30;;;;;;;;;;5091830;28;20043;-42
2022/09/28 00:48:49;;;;;;;0.32;0.28;;;;;;;;;;5092039;28;20536;-42
2022/09/28 00:51:14;;;;;;;0.10;0.10;;;;;;;;;;5090686;28;20020;-42
2022/09/28 00:53:41;;;;;;;0.45;0.35;;;;;;;;;;5092143;28;20058;-42
2022/09/28 00:56:10;;;;;;;0.20;0.20;;;;;;;;;;5073675;28;20460;-42
2022/09/28 00:58:38;;;;;;;0.20;0.20;;;;;;;;;;5090592;28;20016;-42
2022/09/28 01:01:04;;;;;;;0.43;0.32;;;;;;;;;;5091882;28;20036;-42
2022/09/28 01:03:31;;;;;;;0.43;0.22;;;;;;;;;;5091712;28;20020;-42
2022/09/28 01:05:57;;;;;;;0.10;0.10;;;;;;;;;;5090522;28;20153;-42
2022/09/28 01:08:26;;;;;;;0.10;0.10;;;;;;;;;;5091726;28;20107;-42
2022/09/28 01:10:51;;;;;;;0.10;0.10;;;;;;;;;;5090328;28;20070;-42
2022/09/28 01:13:19;;;;;;;0.20;0.20;;;;;;;;;;5090354;28;20387;-42
2022/09/28 01:15:56;;;;;;;0.15;0.15;;;;;;;;;;5090328;28;20024;-42
2022/09/28 01:18:39;;;;;;;0.20;0.20;;;;;;;;;;5090198;28;20035;-42
2022/09/28 01:21:05;;;;;;;0.10;0.10;;;;;;;;;;5091703;28;20035;-42
2022/09/28 01:23:30;;;;;;;0.50;0.22;;;;;;;;;;5091443;28;20016;-42
2022/09/28 01:26:08;;;;;;;0.10;0.10;;;;;;;;;;5090265;28;20486;-43
2022/09/28 01:28:33;;;;;;;0.17;0.10;;;;;;;;;;5091645;28;20059;-42
2022/09/28 01:30:58;;;;;;;0.20;0.20;;;;;;;;;;5091563;28;20016;-42
2022/09/28 01:33:27;;;;;;;0.20;0.20;;;;;;;;;;5091407;28;20031;-42
2022/09/28 01:35:55;;;;;;;5.25;0.52;;;;;;;;;;5090138;28;20527;-42
2022/09/28 01:38:25;;;;;;;0.20;0.20;;;;;;;;;;5090140;28;20032;-42
2022/09/28 01:40:51;;;;;;;0.25;0.20;;;;;;;;;;5089978;28;20506;-42
2022/09/28 01:43:20;;;;;;;0.50;0.40;;;;;;;;;;5073329;28;20078;-42
2022/09/28 01:45:47;;;;;;;0.30;0.30;;;;;;;;;;5089818;28;20093;-42
2022/09/28 01:48:16;;;;;;;0.20;0.20;;;;;;;;;;5091377;28;20442;-43
2022/09/28 01:50:45;;;;;;;0.45;0.30;;;;;;;;;;5089957;28;20032;-42
2022/09/28 01:53:29;;;;;;;0.55;0.50;;;;;;;;;;5089911;28;20078;-42
2022/09/28 01:56:00;;;;;;;0.47;0.40;;;;;;;;;;5090078;28;20056;-42
2022/09/28 01:58:44;;;;;;;0.40;0.30;;;;;;;;;;5089906;28;20052;-42
2022/09/28 02:01:35;;;;;;;0.57;0.20;;;;;;;;;;5091136;28;20031;-42
2022/09/28 02:04:15;;;;;;;1.40;0.50;;;;;;;;;;5086714;28;20453;-42
2022/09/28 02:06:48;;;;;;;0.40;0.40;;;;;;;;;;5089797;28;20067;-42
2022/09/28 02:09:20;;;;;;;0.30;0.30;;;;;;;;;;5089739;28;20069;-42
2022/09/28 02:11:48;;;;;;;0.20;0.20;;;;;;;;;;5089745;28;20490;-47
2022/09/28 02:14:16;;;;;;;0.40;0.40;;;;;;;;;;5089838;28;20055;-42
2022/09/28 02:16:46;;;;;;;0.32;0.20;;;;;;;;;;5089679;28;20147;-42
2022/09/28 02:19:13;;;;;;;0.40;0.30;;;;;;;;;;5091072;28;20050;-43
2022/09/28 02:21:58;;;;;;;0.40;0.40;;;;;;;;;;5089528;28;20497;-42
2022/09/28 02:24:27;;;;;;;0.40;0.35;;;;;;;;;;5089636;28;20383;-42
2022/09/28 02:26:54;;;;;;;0.32;0.20;;;;;;;;;;5089577;28;20025;-42
2022/09/28 02:29:20;;;;;;;1.08;0.40;;;;;;;;;;5089560;28;20224;-42
2022/09/28 02:31:45;;;;;;;0.30;0.30;;;;;;;;;;5089508;28;20120;-42
2022/09/28 02:34:10;;;;;;;0.30;0.30;;;;;;;;;;5089633;28;20486;-43
2022/09/28 02:36:36;;;;;;;0.40;0.30;;;;;;;;;;5089340;28;20024;-42
2022/09/28 02:39:01;;;;;;;0.40;0.40;;;;;;;;;;5089538;28;20386;-42
2022/09/28 02:41:27;;;;;;;1.13;0.50;;;;;;;;;;5090819;28;20016;-42
2022/09/28 02:44:09;;;;;;;0.60;0.50;;;;;;;;;;5091525;28;20046;-42
2022/09/28 02:46:49;;;;;;;0.20;0.20;;;;;;;;;;5092914;28;20044;-42
2022/09/28 02:49:26;;;;;;;0.40;0.32;;;;;;;;;;5093133;28;20028;-43
2022/09/28 02:52:04;;;;;;;0.40;0.22;;;;;;;;;;5092967;28;20081;-42
2022/09/28 02:54:29;;;;;;;0.40;0.20;;;;;;;;;;5094367;28;20028;-42
2022/09/28 02:57:10;;;;;;;0.68;0.52;;;;;;;;;;5092872;28;20051;-43
2022/09/28 02:59:36;;;;;;;0.57;0.28;;;;;;;;;;5092811;28;20043;-42
2022/09/28 03:02:01;;;;;;;0.25;0.25;;;;;;;;;;5092862;28;20020;-42
2022/09/28 03:04:28;;;;;;;1.85;0.50;;;;;;;;;;5092709;28;20036;-42
2022/09/28 03:06:53;;;;;;;1.20;0.65;;;;;;;;;;5092721;28;20493;-42
2022/09/28 03:09:25;;;;;;;3.03;0.35;;;;;;;;;;5092644;28;20482;-42
2022/09/28 03:11:55;;;;;;;0.55;0.45;;;;;;;;;;5093912;28;20024;-42
2022/09/28 03:14:21;;;;;;;1.98;0.38;;;;;;;;;;5093914;28;20035;-42
2022/09/28 03:16:51;;;;;;;1.90;0.40;;;;;;;;;;5092550;28;20035;-42
2022/09/28 03:19:22;;;;;;;0.20;0.20;;;;;;;;;;5092447;28;20535;-42
2022/09/28 03:21:49;;;;;;;4.63;0.30;;;;;;;;;;5092434;28;20710;-42
2022/09/28 03:24:15;;;;;;;1.75;1.10;;;;;;;;;;5092248;28;20036;-42
2022/09/28 03:26:40;;;;;;;1.45;0.63;;;;;;;;;;5093724;28;20028;-42
2022/09/28 03:29:06;;;;;;;6.55;0.40;;;;;;;;;;5092387;28;20028;-42
2022/09/28 03:31:32;;;;;;;0.43;0.30;;;;;;;;;;5092319;28;20038;-42
2022/09/28 03:33:57;;;;;;;0.40;0.40;;;;;;;;;;5093655;28;20470;-43
2022/09/28 03:36:23;;;;;;;0.20;0.20;;;;;;;;;;5092149;28;20093;-42
2022/09/28 03:38:50;;;;;;;0.20;0.20;;;;;;;;;;5092058;28;20110;-42
2022/09/28 03:41:16;;;;;;;0.30;0.30;;;;;;;;;;5093383;28;20023;-43
2022/09/28 03:43:42;;;;;;;0.30;0.22;;;;;;;;;;5093415;28;20370;-42
2022/09/28 03:46:07;;;;;;;0.50;0.45;;;;;;;;;;5091724;28;20044;-42
2022/09/28 03:48:39;;;;;;;0.20;0.20;;;;;;;;;;5092105;28;20048;-42
2022/09/28 03:51:08;;;;;;;0.50;0.50;;;;;;;;;;5091821;28;20411;-42
2022/09/28 03:53:35;;;;;;;0.20;0.20;;;;;;;;;;5091823;28;20059;-43
2022/09/28 03:56:05;;;;;;;0.40;0.40;;;;;;;;;;5091762;28;20429;-43
2022/09/28 03:58:31;;;;;;;0.25;0.25;;;;;;;;;;5091818;28;20077;-42
2022/09/28 04:01:00;;;;;;;0.20;0.20;;;;;;;;;;5091642;28;20020;-42
2022/09/28 04:03:25;;;;;;;0.40;0.35;;;;;;;;;;5093197;28;20533;-42
2022/09/28 04:05:51;;;;;;;0.35;0.35;;;;;;;;;;5091509;28;20044;-42
2022/09/28 04:08:17;;;;;;;0.28;0.25;;;;;;;;;;5091511;28;20501;-42
2022/09/28 04:10:44;;;;;;;0.30;0.30;;;;;;;;;;5091461;28;20020;-42
2022/09/28 04:13:10;;;;;;;0.20;0.20;;;;;;;;;;5091463;28;20037;-42
2022/09/28 04:15:37;;;;;;;0.30;0.30;;;;;;;;;;5091306;28;20072;-42
2022/09/28 04:18:04;;;;;;;0.73;0.47;;;;;;;;;;5092691;28;20024;-42
2022/09/28 04:21:02;;;;;;;0.75;0.35;;;;;;;;;;5092271;28;20031;-42
2022/09/28 04:23:29;;;;;;;0.13;0.13;;;;;;;;;;5091176;28;20078;-42
2022/09/28 04:25:55;;;;;;;0.50;0.20;;;;;;;;;;5091151;28;20059;-42
2022/09/28 04:31:11;;;;;;;0.85;0.40;;;;;;;;;;5091108;28;20089;-43
2022/09/28 04:33:37;;;;;;;0.45;0.43;;;;;;;;;;5090998;28;20032;-42
2022/09/28 04:36:03;;;;;;;1.55;0.40;;;;;;;;;;5092321;28;20030;-42
2022/09/28 04:38:28;;;;;;;0.28;0.17;;;;;;;;;;5092288;28;20024;-42
2022/09/28 04:40:54;;;;;;;0.20;0.20;;;;;;;;;;5090850;28;20020;-42
2022/09/28 04:43:19;;;;;;;0.30;0.20;;;;;;;;;;5090910;28;20048;-42
2022/09/28 04:45:45;;;;;;;0.30;0.30;;;;;;;;;;5090512;28;20450;-42
2022/09/28 04:48:11;;;;;;;0.47;0.43;;;;;;;;;;5090762;28;20028;-42
2022/09/28 04:51:00;;;;;;;0.30;0.20;;;;;;;;;;5090730;28;20538;-42
2022/09/28 04:53:26;;;;;;;0.47;0.35;;;;;;;;;;5090693;28;20111;-42
2022/09/28 04:55:59;;;;;;;0.20;0.20;;;;;;;;;;5073715;28;20485;-42
2022/09/28 04:58:25;;;;;;;;;;;;;;;;;;5091049;28;20028;-42
2022/09/28 05:00:51;;;;;;;0.68;0.40;;;;;;;;;;5090509;28;19998;-43
2022/09/28 05:03:35;;;;;;;0.50;0.50;;;;;;;;;;5091854;28;20086;-42
2022/09/28 05:06:21;;;;;;;0.60;0.60;;;;;;;;;;5090402;28;20600;-42
2022/09/28 05:08:51;;;;;;;0.40;0.30;;;;;;;;;;5090434;28;20032;-42
2022/09/28 05:11:18;;;;;;;0.20;0.20;;;;;;;;;;5091832;28;20020;-42
2022/09/28 05:13:44;;;;;;;0.47;0.47;;;;;;;;;;5091675;28;20028;-42
2022/09/28 05:16:13;;;;;;;0.30;0.28;;;;;;;;;;5090354;28;20024;-42
2022/09/28 05:18:58;;;;;;;0.30;0.30;;;;;;;;;;5091652;28;20031;-42
2022/09/28 05:21:25;;;;;;;0.38;0.38;;;;;;;;;;5091638;28;20101;-42
2022/09/28 05:23:51;;;;;;;0.40;0.30;;;;;;;;;;5091448;28;20024;-42
2022/09/28 05:26:17;;;;;;;1.73;0.57;;;;;;;;;;5090247;28;20032;-42
2022/09/28 05:28:43;;;;;;;0.80;0.73;;;;;;;;;;5090085;28;20424;-42
2022/09/28 05:31:27;;;;;;;0.63;0.40;;;;;;;;;;5091517;28;20046;-42
2022/09/28 05:34:02;;;;;;;3.97;0.95;;;;;;;;;;5090101;28;20055;-42
2022/09/28 05:36:28;;;;;;;1.13;0.60;;;;;;;;;;5090047;28;20051;-42
2022/09/28 05:38:54;;;;;;;0.30;0.30;;;;;;;;;;5089909;28;20045;-42
2022/09/28 05:41:20;;;;;;;0.52;0.30;;;;;;;;;;5090117;28;20036;-42
2022/09/28 05:43:45;;;;;;;5.45;1.90;;;;;;;;;;5089923;28;20081;-43
2022/09/28 05:46:11;;;;;;;1.10;0.75;;;;;;;;;;5091065;28;20052;-42
2022/09/28 05:48:39;;;;;;;0.30;0.30;;;;;;;;;;5089815;28;20421;-42
2022/09/28 05:51:05;;;;;;;5.00;1.95;;;;;;;;;;5089970;28;20032;-42
2022/09/28 05:53:31;;;;;;;0.63;0.43;;;;;;;;;;5090085;28;20012;-42
2022/09/28 05:55:58;;;;;;;1.05;0.55;;;;;;;;;;5089653;28;20032;-42
2022/09/28 05:58:23;;;;;;;0.45;0.35;;;;;;;;;;5089927;28;20046;-42
2022/09/28 06:00:53;;;;;;;0.52;0.52;;;;;;;;;;5089730;28;20394;-42
2022/09/28 06:03:18;;;;;;;0.43;0.40;;;;;;;;;;5091095;28;20047;-42
2022/09/28 06:05:44;;;;;;;0.40;0.32;;;;;;;;;;5091056;28;20068;-42
2022/09/28 06:08:10;;;;;;;0.40;0.38;;;;;;;;;;5089852;28;20382;-42
2022/09/28 06:10:37;;;;;;;0.45;0.45;;;;;;;;;;5089706;28;20036;-42
2022/09/28 06:13:03;;;;;;;0.45;0.45;;;;;;;;;;5091142;28;20103;-42
2022/09/28 06:15:30;;;;;;;0.93;0.40;;;;;;;;;;5089769;28;20641;-42
2022/09/28 06:17:57;;;;;;;0.30;0.30;;;;;;;;;;5089593;28;20024;-42
2022/09/28 06:20:49;;;;;;;1.25;0.55;;;;;;;;;;5062580;28;20028;-42
2022/09/28 06:23:16;;;;;;;0.88;0.57;;;;;;;;;;5094850;28;20086;-42
2022/09/28 06:25:42;;;;;;;0.63;0.30;;;;;;;;;;5094689;28;20023;-43
2022/09/28 06:28:12;;;;;;;0.60;0.50;;;;;;;;;;5093599;28;20020;-42
2022/09/28 06:30:38;;;;;;;2.40;0.50;;;;;;;;;;5093587;28;20047;-42
2022/09/28 06:33:08;;;;;;;0.73;0.73;;;;;;;;;;5093473;28;20035;-42
2022/09/28 06:35:35;;;;;;;1.73;0.60;;;;;;;;;;5093387;28;20114;-42
2022/09/28 06:38:00;;;;;;;0.65;0.40;;;;;;;;;;5093153;28;20206;-42
2022/09/28 06:40:26;;;;;;;2.17;0.38;;;;;;;;;;5094518;28;20016;-42
2022/09/28 06:42:55;;;;;;;0.70;0.47;;;;;;;;;;5093126;28;20024;-42
2022/09/28 06:45:39;;;;;;;0.93;0.38;;;;;;;;;;5092779;28;20055;-42
2022/09/28 06:48:23;;;;;;;0.30;0.30;;;;;;;;;;5093190;28;20028;-42
2022/09/28 06:50:49;;;;;;;0.93;0.50;;;;;;;;;;5093054;28;20028;-43
2022/09/28 06:53:29;;;;;;;0.50;0.35;;;;;;;;;;5093081;28;20047;-42
2022/09/28 06:56:01;;;;;;;0.38;0.35;;;;;;;;;;5092858;28;20032;-42
2022/09/28 06:58:28;;;;;;;0.30;0.30;;;;;;;;;;5092937;28;20036;-42
2022/09/28 07:00:59;;;;;;;1.27;0.60;;;;;;;;;;5092789;28;20028;-42
2022/09/28 07:03:27;;;;;;;0.63;0.50;;;;;;;;;;5092841;28;20051;-42
2022/09/28 07:06:11;;;;;;;0.32;0.32;;;;;;;;;;5094346;28;20130;-43
2022/09/28 07:08:52;;;;;;;2.53;1.10;;;;;;;;;;5092691;28;20427;-43
2022/09/28 07:11:38;;;;;;;1.23;0.60;;;;;;;;;;5092762;28;20032;-42
2022/09/28 07:14:19;;;;;;;0.25;0.25;;;;;;;;;;5092516;28;20115;-42
2022/09/28 07:16:46;;;;;;;0.25;0.25;;;;;;;;;;5092536;28;20043;-44
2022/09/28 07:19:13;;;;;;;0.35;0.35;;;;;;;;;;5092586;28;20016;-42
2022/09/28 07:21:39;;;;;;;7.32;0.50;;;;;;;;;;5092219;28;20186;-43
2022/09/28 07:24:05;;;;;;;1.05;0.40;;;;;;;;;;5092410;28;20118;-42
2022/09/28 07:26:34;;;;;;;2.03;0.85;;;;;;;;;;5094041;28;20047;-42
2022/09/28 07:29:04;;;;;;;1.08;0.50;;;;;;;;;;5092135;28;20475;-42
2022/09/28 07:31:37;;;;;;;;;;;;;;;;;;5093965;28;20028;-42
2022/09/28 07:34:22;;;;;;;0.77;0.40;;;;;;;;;;5092329;28;20263;-42
2022/09/28 07:37:01;;;;;;;0.40;0.30;;;;;;;;;;5093464;28;20100;-42
2022/09/28 07:39:27;;;;;;;0.63;0.20;;;;;;;;;;5092206;28;20039;-42
2022/09/28 07:41:53;;;;;;;0.50;0.50;;;;;;;;;;5091950;28;20024;-42
2022/09/28 07:44:19;;;;;;;0.85;0.70;;;;;;;;;;5091913;28;20045;-42
2022/09/28 07:46:49;;;;;;;0.57;0.40;;;;;;;;;;5091722;28;20040;-42
2022/09/28 07:49:27;;;;;;;1.38;1.00;;;;;;;;;;5091950;28;20092;-42
2022/09/28 07:52:27;;;;;;;2.92;0.93;;;;;;;;;;5050635;28;20025;-42
2022/09/28 07:55:07;;;;;;;1.42;1.15;;;;;;;;;;5087063;28;20090;-42
2022/09/28 07:58:07;;;;;;;0.73;0.50;;;;;;;;;;5070347;28;20035;-42
2022/09/28 08:00:52;;;;;;;0.80;0.50;;;;;;;;;;5088570;28;20075;-42
2022/09/28 08:03:18;;;;;;;0.43;0.32;;;;;;;;;;5092984;28;20055;-42
2022/09/28 08:05:44;;;;;;;0.35;0.30;;;;;;;;;;5091495;28;20415;-42
2022/09/28 08:08:10;;;;;;;3.38;1.55;;;;;;;;;;5091588;28;20054;-42
2022/09/28 08:10:36;;;;;;;0.38;0.38;;;;;;;;;;5093047;28;20028;-42
2022/09/28 08:13:15;;;;;;;0.90;0.60;;;;;;;;;;5091568;28;20024;-42
2022/09/28 08:16:07;;;;;;;0.73;0.65;;;;;;;;;;5084575;28;20119;-42
2022/09/28 08:18:38;;;;;;;0.45;0.20;;;;;;;;;;5091196;28;20039;-42
2022/09/28 08:23:48;;;;;;;0.63;0.38;;;;;;;;;;5091178;28;20429;-42
2022/09/28 08:26:15;;;;;;;0.60;0.38;;;;;;;;;;5091117;28;20081;-43
2022/09/28 08:28:42;;;;;;;0.40;0.40;;;;;;;;;;5091070;28;20085;-42
2022/09/28 08:31:27;;;;;;;1.02;0.55;;;;;;;;;;5092280;28;20103;-42
2022/09/28 08:34:26;;;;;;;0.65;0.30;;;;;;;;;;5058005;28;20024;-42
2022/09/28 08:37:10;;;;;;;0.38;0.38;;;;;;;;;;5092422;28;20506;-42
2022/09/28 08:40:05;;;;;;;1.05;0.50;;;;;;;;;;5091131;28;20032;-42
2022/09/28 08:43:03;;;;;;;0.47;0.40;;;;;;;;;;5082038;28;20055;-43
2022/09/28 08:45:49;;;;;;;0.30;0.30;;;;;;;;;;5091767;28;20126;-42
2022/09/28 08:48:47;;;;;;;0.63;0.35;;;;;;;;;;5090881;28;20031;-43
2022/09/28 08:51:32;;;;;;;0.40;0.40;;;;;;;;;;5090884;28;20073;-42
2022/09/28 08:54:44;;;;;;;0.47;0.47;;;;;;;;;;5089790;28;20058;-42
2022/09/28 08:57:21;;;;;;;0.50;0.40;;;;;;;;;;5090550;28;20032;-42
2022/09/28 08:59:46;;;;;;;0.63;0.45;;;;;;;;;;5090569;28;20567;-42
2022/09/28 09:02:20;;;;;;;0.63;0.30;;;;;;;;;;5090507;28;20355;-42
2022/09/28 09:04:46;;;;;;;1.25;0.88;;;;;;;;;;5091647;28;20039;-42
2022/09/28 09:07:37;;;;;;;15.80;6.25;;;;;;;;;;5091733;28;20541;-42
2022/09/28 09:10:27;;;;;;;0.80;0.52;;;;;;;;;;5090440;28;20103;-42
2022/09/28 09:13:30;;;;;;;0.32;0.32;;;;;;;;;;5090348;28;20082;-42
2022/09/28 09:16:13;;;;;;;0.30;0.30;;;;;;;;;;5090244;28;20028;-42
2022/09/28 09:19:35;;;;;;;0.55;0.40;;;;;;;;;;5068140;28;20043;-42
2022/09/28 09:22:16;;;;;;;0.73;0.70;;;;;;;;;;5073943;28;20437;-43
2022/09/28 09:24:49;;;;;;;2.63;1.42;;;;;;;;;;5089993;28;20036;-42
2022/09/28 09:27:15;;;;;;;0.43;0.40;;;;;;;;;;5090212;28;20494;-42
2022/09/28 09:29:50;;;;;;;1.08;0.65;;;;;;;;;;5090011;28;20024;-42
2022/09/28 09:32:24;;;;;;;0.50;0.50;;;;;;;;;;5090041;28;20032;-42
2022/09/28 09:34:53;;;;;;;0.60;0.60;;;;;;;;;;5090008;28;20024;-42
2022/09/28 09:37:55;;;;;;;0.57;0.40;;;;;;;;;;5091595;28;20016;-42
2022/09/28 09:40:49;;;;;;;1.05;0.55;;;;;;;;;;5091725;28;20066;-42
2022/09/28 09:43:58;;;;;;;1.23;0.95;;;;;;;;;;5091628;28;20093;-42
2022/09/28 09:47:05;;;;;;;0.85;0.30;;;;;;;;;;5079893;28;20052;-42
2022/09/28 09:49:39;;;;;;;0.52;0.30;;;;;;;;;;5090008;28;20028;-42
2022/09/28 09:52:18;;;;;;;0.30;0.30;;;;;;;;;;5089825;28;20398;-43
2022/09/28 09:54:50;;;;;;;0.40;0.40;;;;;;;;;;5093960;28;20039;-42
2022/09/28 09:57:39;;;;;;;1.02;0.50;;;;;;;;;;5095714;28;20444;-42
2022/09/28 10:00:15;;;;;;;0.73;0.47;;;;;;;;;;5095377;28;20038;-42
2022/09/28 10:02:49;;;;;;;1.20;0.35;;;;;;;;;;5094190;28;20077;-42
2022/09/28 10:05:30;;;;;;;0.43;0.43;;;;;;;;;;5093838;28;20478;-42
2022/09/28 10:08:01;;;;;;;0.85;0.80;;;;;;;;;;5095183;28;20482;-42
2022/09/28 10:10:29;;;;;;;0.45;0.38;;;;;;;;;;5093858;28;20035;-42
2022/09/28 10:13:04;;;;;;;1.08;0.40;;;;;;;;;;5093707;28;20031;-42
2022/09/28 10:15:34;;;;;;;0.30;0.25;;;;;;;;;;5093733;28;20027;-42
2022/09/28 10:18:14;;;;;;;0.40;0.40;;;;;;;;;;5093740;28;20024;-42
2022/09/28 10:20:58;;;;;;;0.40;0.40;;;;;;;;;;5095026;28;20039;-42
2022/09/28 10:23:42;;;;;;;0.40;0.22;;;;;;;;;;5093424;28;20039;-42
2022/09/28 10:26:22;;;;;;;0.50;0.40;;;;;;;;;;5093560;28;20624;-42
2022/09/28 10:28:54;;;;;;;0.70;0.40;;;;;;;;;;5094703;28;20105;-42
2022/09/28 10:31:36;;;;;;;0.65;0.57;;;;;;;;;;5093463;28;20028;-42
2022/09/28 10:34:04;;;;;;;0.50;0.50;;;;;;;;;;5093325;28;20032;-42
2022/09/28 10:36:43;;;;;;;0.65;0.60;;;;;;;;;;5094644;28;20016;-42
2022/09/28 10:39:29;;;;;;;0.73;0.73;;;;;;;;;;5094716;28;20470;-42
2022/09/28 10:41:57;;;;;;;0.50;0.35;;;;;;;;;;5093196;28;20030;-42
2022/09/28 10:44:29;;;;;;;0.40;0.30;;;;;;;;;;5093249;28;20039;-42
2022/09/28 10:47:20;;;;;;;;;;;;;;;;;;5078653;28;20036;-42
2022/09/28 10:49:47;;;;;;;0.50;0.45;;;;;;;;;;5093127;28;19916;-42
2022/09/28 10:52:55;;;;;;;1.05;0.35;;;;;;;;;;5093087;28;20020;-42
2022/09/28 10:55:58;;;;;;;0.45;0.45;;;;;;;;;;5051389;28;20498;-42
2022/09/28 10:58:50;;;;;;;1.10;0.70;;;;;;;;;;5034901;28;20112;-42
2022/09/28 11:01:28;;;;;;;1.02;0.80;;;;;;;;;;5090951;28;20039;-42
2022/09/28 11:03:55;;;;;;;1.30;0.57;;;;;;;;;;5092520;28;20027;-42
2022/09/28 11:06:40;;;;;;;7.53;1.90;;;;;;;;;;5092242;28;20117;-42
2022/09/28 11:09:29;;;;;;;9.15;3.17;;;;;;;;;;5092706;28;20024;-42
2022/09/28 11:12:00;;;;;;;0.57;0.40;;;;;;;;;;5092593;28;20028;-43
2022/09/28 11:14:36;;;;;;;1.63;1.05;;;;;;;;;;5092637;28;20059;-42
2022/09/28 11:17:23;;;;;;;3.65;1.77;;;;;;;;;;5092342;28;20032;-42
2022/09/28 11:19:49;;;;;;;0.40;0.40;;;;;;;;;;5075705;28;20402;-43
2022/09/28 11:22:20;;;;;;;1.77;1.20;;;;;;;;;;5092512;28;20123;-42
2022/09/28 11:24:49;;;;;;;0.40;0.38;;;;;;;;;;5092211;28;20036;-42
2022/09/28 11:27:25;;;;;;;94.40;23.75;;;;;;;;;;5093859;28;20027;-42
2022/09/28 11:29:56;;;;;;;20.67;8.18;;;;;;;;;;5091931;28;20028;-42
2022/09/28 11:32:27;;;;;;;38.20;14.88;;;;;;;;;;5093562;28;20027;-42
2022/09/28 11:35:21;;;;;;;17.02;6.07;;;;;;;;;;5077080;28;20059;-42
2022/09/28 11:38:03;;;;;;;58.10;16.80;;;;;;;;;;5092008;28;20028;-43
2022/09/28 11:40:50;;;;;;;112.90;30.23;;;;;;;;;;5093373;28;20039;-42
2022/09/28 11:43:19;;;;;;;144.77;48.15;;;;;;;;;;5092038;28;20386;-43
2022/09/28 11:45:51;;;;;;;62.33;22.88;;;;;;;;;;5091649;28;20158;-42
2022/09/28 11:48:20;;;;;;;16.73;10.13;;;;;;;;;;5092046;28;20028;-43
2022/09/28 11:51:06;;;;;;;22.23;12.23;;;;;;;;;;5091792;28;20114;-43
2022/09/28 11:53:39;;;;;;;4.88;2.95;;;;;;;;;;5082315;28;20047;-42
2022/09/28 11:56:13;;;;;;;3.25;2.85;;;;;;;;;;5093025;28;20428;-42
2022/09/28 11:58:39;;;;;;;3.78;2.90;;;;;;;;;;5093013;28;20456;-43
2022/09/28 12:01:15;;;;;;;55.38;26.30;;;;;;;;;;5091589;28;20698;-42
2022/09/28 12:04:09;;;;;;;16.40;7.53;;;;;;;;;;5092783;28;20110;-42
2022/09/28 12:06:44;;;;;;;7.22;4.03;;;;;;;;;;5091585;28;20032;-42
2022/09/28 12:09:34;;;;;;;3.85;2.30;;;;;;;;;;5091589;28;20479;-42
2022/09/28 12:12:21;;;;;;;4.22;2.45;;;;;;;;;;5084344;28;20044;-42
2022/09/28 12:14:47;;;;;;;5.30;3.60;;;;;;;;;;5091419;28;20032;-42
2022/09/28 12:17:17;;;;;;;2.30;2.10;;;;;;;;;;5091593;28;20496;-42
2022/09/28 12:19:54;;;;;;;2.47;2.28;;;;;;;;;;5092836;28;20267;-42
2022/09/28 12:22:30;;;;;;;6.72;2.50;;;;;;;;;;5091355;28;20024;-42
2022/09/28 12:24:57;;;;;;;1.63;1.02;;;;;;;;;;5092458;28;20087;-43
2022/09/28 12:27:41;;;;;;;1.38;1.02;;;;;;;;;;5092474;28;20040;-45
2022/09/28 12:30:12;;;;;;;1.27;1.05;;;;;;;;;;5091179;28;20028;-42
2022/09/28 12:32:47;;;;;;;6.28;3.15;;;;;;;;;;5092416;28;20539;-42
2022/09/28 12:35:18;;;;;;;5.72;2.00;;;;;;;;;;5092330;28;20028;-44
2022/09/28 12:37:53;;;;;;;4.22;2.28;;;;;;;;;;5092193;28;20035;-42
2022/09/28 12:40:25;;;;;;;1.10;1.05;;;;;;;;;;5092291;28;20109;-42
2022/09/28 12:42:54;;;;;;;1.93;1.10;;;;;;;;;;5092206;28;20032;-42
2022/09/28 12:45:26;;;;;;;2.15;1.50;;;;;;;;;;5091997;28;20292;-42
2022/09/28 12:47:58;;;;;;;6.03;1.25;;;;;;;;;;5092128;28;20024;-42
2022/09/28 12:50:38;;;;;;;1.55;1.13;;;;;;;;;;5092363;28;20505;-42
2022/09/28 12:53:09;;;;;;;2.08;1.40;;;;;;;;;;5091877;28;20039;-42
2022/09/28 12:56:01;;;;;;;1.60;0.85;;;;;;;;;;5090811;28;20039;-42
2022/09/28 12:58:30;;;;;;;3.30;1.33;;;;;;;;;;5089851;28;20040;-43
2022/09/28 13:01:14;;;;;;;1.25;1.15;;;;;;;;;;5090560;28;20481;-42
2022/09/28 13:04:09;;;;;;;3.78;1.83;;;;;;;;;;5091815;28;20028;-42
2022/09/28 13:06:37;;;;;;;0.85;0.82;;;;;;;;;;5075651;28;20048;-42
2022/09/28 13:09:15;;;;;;;1.48;0.80;;;;;;;;;;5091776;28;20061;-42
2022/09/28 13:11:53;;;;;;;0.65;0.55;;;;;;;;;;5091767;28;20039;-42
2022/09/28 13:14:37;;;;;;;1.35;0.63;;;;;;;;;;5091772;28;20059;-42
2022/09/28 13:17:13;;;;;;;1.58;1.48;;;;;;;;;;5091503;28;20032;-42
2022/09/28 13:19:48;;;;;;;3.03;1.48;;;;;;;;;;5091667;28;20591;-43
2022/09/28 13:22:32;;;;;;;1.77;0.70;;;;;;;;;;5091693;28;20597;-42
2022/09/28 13:25:00;;;;;;;4.95;1.52;;;;;;;;;;5091652;28;20430;-42
2022/09/28 13:27:34;;;;;;;1.05;0.82;;;;;;;;;;5091563;28;20093;-43
2022/09/28 13:30:04;;;;;;;4.15;0.82;;;;;;;;;;5091435;28;20028;-42
2022/09/28 13:32:30;;;;;;;3.22;0.88;;;;;;;;;;5091474;28;20031;-43
2022/09/28 13:34:57;;;;;;;1.90;0.75;;;;;;;;;;5091239;28;20032;-43
2022/09/28 13:37:24;;;;;;;2.30;0.60;;;;;;;;;;5091397;28;20027;-43
2022/09/28 13:40:04;;;;;;;0.82;0.70;;;;;;;;;;5091552;28;20028;-42
2022/09/28 13:42:40;;;;;;;0.95;0.93;;;;;;;;;;5091484;28;20071;-43
2022/09/28 13:45:21;;;;;;;1.27;0.52;;;;;;;;;;5091187;28;20516;-42
2022/09/28 13:47:50;;;;;;;1.58;1.00;;;;;;;;;;5091213;28;20543;-42
2022/09/28 13:50:23;;;;;;;0.63;0.63;;;;;;;;;;5091359;28;20039;-42
2022/09/28 13:53:00;;;;;;;1.65;0.73;;;;;;;;;;5091454;28;20421;-42
2022/09/28 13:55:31;;;;;;;1.77;0.85;;;;;;;;;;5090312;28;20105;-42
2022/09/28 13:58:16;;;;;;;0.67;0.63;;;;;;;;;;5090008;28;20039;-42
2022/09/28 14:00:46;;;;;;;1.35;0.82;;;;;;;;;;5090957;28;20050;-42
2022/09/28 14:03:19;;;;;;;1.13;0.70;;;;;;;;;;5091199;28;20032;-42
2022/09/28 14:06:04;;;;;;;2.92;1.20;;;;;;;;;;5091099;28;20127;-42
2022/09/28 14:08:37;;;;;;;1.45;0.80;;;;;;;;;;5091203;28;20028;-42
2022/09/28 14:11:23;;;;;;;0.60;0.60;;;;;;;;;;5091174;28;20111;-42
2022/09/28 14:14:10;;;;;;;0.80;0.80;;;;;;;;;;5091279;28;20029;-42
2022/09/28 14:16:37;;;;;;;0.40;0.40;;;;;;;;;;5091028;28;20032;-42
2022/09/28 14:19:23;;;;;;;0.50;0.45;;;;;;;;;;5090966;28;20467;-42
2022/09/28 14:22:05;;;;;;;1.50;1.10;;;;;;;;;;5089609;28;20036;-42
2022/09/28 14:24:49;;;;;;;1.55;0.52;;;;;;;;;;5090961;28;20039;-42
2022/09/28 14:27:33;;;;;;;0.50;0.40;;;;;;;;;;5091033;28;20028;-42
2022/09/28 14:30:25;;;;;;;0.38;0.32;;;;;;;;;;5090890;28;20024;-42
2022/09/28 14:32:56;;;;;;;0.40;0.40;;;;;;;;;;5088902;28;20115;-42
2022/09/28 14:35:28;;;;;;;4.32;0.65;;;;;;;;;;5090805;28;20028;-42
2022/09/28 14:41:08;;;;;;;0.50;0.40;;;;;;;;;;5093203;28;20028;-42
2022/09/28 14:43:43;;;;;;;2.45;0.70;;;;;;;;;;5093229;28;20444;-42
2022/09/28 14:46:10;;;;;;;0.70;0.70;;;;;;;;;;5094249;28;20444;-42
2022/09/28 14:48:49;;;;;;;2.55;0.52;;;;;;;;;;5094510;28;20099;-42
2022/09/28 14:51:32;;;;;;;0.82;0.60;;;;;;;;;;5094434;28;20535;-42
2022/09/28 14:54:09;;;;;;;0.60;0.38;;;;;;;;;;5094676;28;20054;-42
2022/09/28 14:56:39;;;;;;;0.95;0.40;;;;;;;;;;5094317;28;20032;-43
2022/09/28 14:59:05;;;;;;;0.68;0.50;;;;;;;;;;5094533;28;20107;-42
2022/09/28 15:01:33;;;;;;;2.00;0.75;;;;;;;;;;5093090;28;20028;-42
2022/09/28 15:04:03;;;;;;;3.08;0.45;;;;;;;;;;5094038;28;20016;-42
2022/09/28 15:06:48;;;;;;;2.17;0.47;;;;;;;;;;5093996;28;20036;-42
2022/09/28 15:09:27;;;;;;;4.45;0.88;;;;;;;;;;5094052;28;20031;-43
2022/09/28 15:11:57;;;;;;;1.23;0.50;;;;;;;;;;5093949;28;20471;-42
2022/09/28 15:14:24;;;;;;;0.35;0.25;;;;;;;;;;5094015;28;20035;-42
2022/09/28 15:16:49;;;;;;;0.50;0.45;;;;;;;;;;5093774;28;20020;-42
2022/09/28 15:19:21;;;;;;;0.25;0.25;;;;;;;;;;5093833;28;20095;-42
2022/09/28 15:21:49;;;;;;;0.35;0.30;;;;;;;;;;5093698;28;20060;-42
2022/09/28 15:24:26;;;;;;;1.70;0.45;;;;;;;;;;5093694;28;20035;-42
2022/09/28 15:26:55;;;;;;;0.82;0.70;;;;;;;;;;5093878;28;20039;-42
2022/09/28 15:29:26;;;;;;;0.52;0.50;;;;;;;;;;5093608;28;20027;-42
2022/09/28 15:31:56;;;;;;;0.47;0.30;;;;;;;;;;5093607;28;20028;-43